Terminal Aerodrome Forecast
Issued by NWS

Home | Current Version | Previous Version | Text Only | Print | Product List | Glossary On
Versions: 1 2 3 4 5 6 7 8 9 10 11 12 13
000
FTUS46 KPDT 290500
TAFBDN
TAF
KBDN 290531Z 2906/3006 VRB06KT P6SM SKC
     FM292000 32008KT P6SM FEW100 SCT250
     FM292200 32010KT P6SM SCT070 SCT250=

USA.gov is the U.S. government's official web portal to all federal, state and local government web resources and services.